sensor_id;sensor_type;location;lat;lon;timestamp;P1;durP1;ratioP1;P2;durP2;ratioP2
51358;SDS011;37448;51.588;7.248;2022-09-09T00:02:21;1.85;;;0.40;;
51358;SDS011;37448;51.588;7.248;2022-09-09T00:05:04;2.28;;;0.50;;
51358;SDS011;37448;51.588;7.248;2022-09-09T00:13:11;3.05;;;0.82;;
51358;SDS011;37448;51.588;7.248;2022-09-09T00:15:57;2.25;;;0.63;;
51358;SDS011;37448;51.588;7.248;2022-09-09T00:21:17;4.28;;;1.13;;
51358;SDS011;37448;51.588;7.248;2022-09-09T00:23:52;3.35;;;0.95;;
51358;SDS011;37448;51.588;7.248;2022-09-09T00:26:32;1.55;;;0.70;;
51358;SDS011;37448;51.588;7.248;2022-09-09T00:29:26;3.53;;;0.70;;
51358;SDS011;37448;51.588;7.248;2022-09-09T00:32:13;3.80;;;0.63;;
51358;SDS011;37448;51.588;7.248;2022-09-09T00:34:51;4.00;;;1.05;;
51358;SDS011;37448;51.588;7.248;2022-09-09T00:37:26;2.90;;;0.80;;
51358;SDS011;37448;51.588;7.248;2022-09-09T00:39:59;2.00;;;0.60;;
51358;SDS011;37448;51.588;7.248;2022-09-09T00:42:40;4.63;;;0.77;;
51358;SDS011;37448;51.588;7.248;2022-09-09T00:48:03;3.92;;;0.70;;
51358;SDS011;37448;51.588;7.248;2022-09-09T00:50:56;3.72;;;0.80;;
51358;SDS011;37448;51.588;7.248;2022-09-09T00:53:33;2.25;;;0.80;;
51358;SDS011;37448;51.588;7.248;2022-09-09T00:57:17;4.38;;;1.58;;
51358;SDS011;37448;51.588;7.248;2022-09-09T00:59:47;3.03;;;0.88;;
51358;SDS011;37448;51.588;7.248;2022-09-09T01:02:28;2.65;;;0.63;;
51358;SDS011;37448;51.588;7.248;2022-09-09T01:11:22;1.80;;;0.80;;
51358;SDS011;37448;51.588;7.248;2022-09-09T01:14:01;3.10;;;1.00;;
51358;SDS011;37448;51.588;7.248;2022-09-09T01:16:56;2.92;;;0.98;;
51358;SDS011;37448;51.588;7.248;2022-09-09T01:19:37;3.85;;;1.27;;
51358;SDS011;37448;51.588;7.248;2022-09-09T01:25:20;3.30;;;1.02;;
51358;SDS011;37448;51.588;7.248;2022-09-09T01:28:00;3.55;;;1.05;;
51358;SDS011;37448;51.588;7.248;2022-09-09T01:30:35;5.65;;;1.52;;
51358;SDS011;37448;51.588;7.248;2022-09-09T01:33:10;3.78;;;1.00;;
51358;SDS011;37448;51.588;7.248;2022-09-09T01:35:51;2.45;;;1.05;;
51358;SDS011;37448;51.588;7.248;2022-09-09T01:38:26;3.10;;;1.08;;
51358;SDS011;37448;51.588;7.248;2022-09-09T01:40:57;4.03;;;1.33;;
51358;SDS011;37448;51.588;7.248;2022-09-09T01:43:28;3.50;;;1.10;;
51358;SDS011;37448;51.588;7.248;2022-09-09T01:45:59;4.25;;;1.30;;
51358;SDS011;37448;51.588;7.248;2022-09-09T01:48:32;2.65;;;1.33;;
51358;SDS011;37448;51.588;7.248;2022-09-09T01:51:03;2.95;;;1.20;;
51358;SDS011;37448;51.588;7.248;2022-09-09T01:53:33;5.15;;;1.10;;
51358;SDS011;37448;51.588;7.248;2022-09-09T02:02:12;4.95;;;1.30;;
51358;SDS011;37448;51.588;7.248;2022-09-09T02:04:47;6.10;;;1.30;;
51358;SDS011;37448;51.588;7.248;2022-09-09T02:10:08;2.60;;;1.33;;
51358;SDS011;37448;51.588;7.248;2022-09-09T02:12:48;7.03;;;1.95;;
51358;SDS011;37448;51.588;7.248;2022-09-09T02:15:33;3.80;;;1.42;;
51358;SDS011;37448;51.588;7.248;2022-09-09T02:18:08;7.57;;;2.20;;
51358;SDS011;37448;51.588;7.248;2022-09-09T02:20:43;4.43;;;2.00;;
51358;SDS011;37448;51.588;7.248;2022-09-09T02:23:16;6.03;;;2.00;;
51358;SDS011;37448;51.588;7.248;2022-09-09T02:25:48;5.65;;;1.95;;
51358;SDS011;37448;51.588;7.248;2022-09-09T02:28:21;5.80;;;2.28;;
51358;SDS011;37448;51.588;7.248;2022-09-09T02:30:55;5.50;;;1.90;;
51358;SDS011;37448;51.588;7.248;2022-09-09T02:33:27;6.65;;;2.20;;
51358;SDS011;37448;51.588;7.248;2022-09-09T02:36:04;3.55;;;1.73;;
51358;SDS011;37448;51.588;7.248;2022-09-09T02:38:38;7.63;;;2.20;;
51358;SDS011;37448;51.588;7.248;2022-09-09T02:41:34;6.82;;;2.28;;
51358;SDS011;37448;51.588;7.248;2022-09-09T02:44:10;6.43;;;2.97;;
51358;SDS011;37448;51.588;7.248;2022-09-09T02:46:50;5.78;;;2.28;;
51358;SDS011;37448;51.588;7.248;2022-09-09T02:52:47;6.25;;;2.90;;
51358;SDS011;37448;51.588;7.248;2022-09-09T02:58:17;6.90;;;2.97;;
51358;SDS011;37448;51.588;7.248;2022-09-09T03:00:49;10.32;;;3.72;;
51358;SDS011;37448;51.588;7.248;2022-09-09T03:03:21;7.43;;;2.40;;
51358;SDS011;37448;51.588;7.248;2022-09-09T03:05:52;6.72;;;2.70;;
51358;SDS011;37448;51.588;7.248;2022-09-09T03:08:22;6.40;;;2.72;;
51358;SDS011;37448;51.588;7.248;2022-09-09T03:10:57;8.10;;;2.28;;
51358;SDS011;37448;51.588;7.248;2022-09-09T03:13:31;5.18;;;2.13;;
51358;SDS011;37448;51.588;7.248;2022-09-09T03:16:01;7.82;;;2.45;;
51358;SDS011;37448;51.588;7.248;2022-09-09T03:18:34;7.65;;;2.30;;
51358;SDS011;37448;51.588;7.248;2022-09-09T03:21:04;4.13;;;2.03;;
51358;SDS011;37448;51.588;7.248;2022-09-09T03:23:35;6.82;;;2.17;;
51358;SDS011;37448;51.588;7.248;2022-09-09T03:26:05;7.32;;;2.20;;
51358;SDS011;37448;51.588;7.248;2022-09-09T03:28:36;5.18;;;1.85;;
51358;SDS011;37448;51.588;7.248;2022-09-09T03:31:06;5.60;;;2.20;;
51358;SDS011;37448;51.588;7.248;2022-09-09T03:33:40;7.35;;;3.28;;
51358;SDS011;37448;51.588;7.248;2022-09-09T03:36:11;7.93;;;2.20;;
51358;SDS011;37448;51.588;7.248;2022-09-09T03:38:41;3.83;;;2.00;;
51358;SDS011;37448;51.588;7.248;2022-09-09T03:41:11;5.80;;;1.88;;
51358;SDS011;37448;51.588;7.248;2022-09-09T03:43:42;6.10;;;2.08;;
51358;SDS011;37448;51.588;7.248;2022-09-09T03:46:13;6.75;;;2.00;;
51358;SDS011;37448;51.588;7.248;2022-09-09T03:48:43;7.50;;;2.10;;
51358;SDS011;37448;51.588;7.248;2022-09-09T03:51:14;6.25;;;1.80;;
51358;SDS011;37448;51.588;7.248;2022-09-09T03:53:45;4.93;;;2.03;;
51358;SDS011;37448;51.588;7.248;2022-09-09T03:56:16;5.88;;;2.25;;
51358;SDS011;37448;51.588;7.248;2022-09-09T03:58:46;5.40;;;1.90;;
51358;SDS011;37448;51.588;7.248;2022-09-09T04:01:17;6.43;;;1.65;;
51358;SDS011;37448;51.588;7.248;2022-09-09T04:03:47;7.05;;;2.17;;
51358;SDS011;37448;51.588;7.248;2022-09-09T04:06:18;4.80;;;1.65;;
51358;SDS011;37448;51.588;7.248;2022-09-09T04:08:51;3.92;;;1.83;;
51358;SDS011;37448;51.588;7.248;2022-09-09T04:11:22;6.85;;;2.20;;
51358;SDS011;37448;51.588;7.248;2022-09-09T04:13:52;6.47;;;1.98;;
51358;SDS011;37448;51.588;7.248;2022-09-09T04:16:23;3.92;;;2.00;;
51358;SDS011;37448;51.588;7.248;2022-09-09T04:18:53;5.03;;;1.60;;
51358;SDS011;37448;51.588;7.248;2022-09-09T04:21:23;5.10;;;1.58;;
51358;SDS011;37448;51.588;7.248;2022-09-09T04:23:54;6.32;;;1.80;;
51358;SDS011;37448;51.588;7.248;2022-09-09T04:26:24;5.07;;;1.92;;
51358;SDS011;37448;51.588;7.248;2022-09-09T04:28:54;4.72;;;1.50;;
51358;SDS011;37448;51.588;7.248;2022-09-09T04:31:25;7.43;;;1.58;;
51358;SDS011;37448;51.588;7.248;2022-09-09T04:33:56;4.20;;;1.83;;
51358;SDS011;37448;51.588;7.248;2022-09-09T04:36:26;4.47;;;1.60;;
51358;SDS011;37448;51.588;7.248;2022-09-09T04:38:56;4.82;;;1.60;;
51358;SDS011;37448;51.588;7.248;2022-09-09T04:41:27;4.30;;;1.73;;
51358;SDS011;37448;51.588;7.248;2022-09-09T04:43:57;5.55;;;2.15;;
51358;SDS011;37448;51.588;7.248;2022-09-09T04:46:29;6.20;;;1.50;;
51358;SDS011;37448;51.588;7.248;2022-09-09T04:49:00;6.60;;;1.77;;
51358;SDS011;37448;51.588;7.248;2022-09-09T04:51:30;6.68;;;1.83;;
51358;SDS011;37448;51.588;7.248;2022-09-09T04:54:01;4.65;;;1.52;;
51358;SDS011;37448;51.588;7.248;2022-09-09T04:56:31;6.30;;;1.80;;
51358;SDS011;37448;51.588;7.248;2022-09-09T04:59:01;8.25;;;2.00;;
51358;SDS011;37448;51.588;7.248;2022-09-09T05:01:33;3.97;;;1.52;;
51358;SDS011;37448;51.588;7.248;2022-09-09T05:04:04;7.22;;;2.33;;
51358;SDS011;37448;51.588;7.248;2022-09-09T05:06:34;7.00;;;2.22;;
51358;SDS011;37448;51.588;7.248;2022-09-09T05:09:06;5.40;;;1.95;;
51358;SDS011;37448;51.588;7.248;2022-09-09T05:11:36;7.13;;;2.33;;
51358;SDS011;37448;51.588;7.248;2022-09-09T05:14:07;9.02;;;1.65;;
51358;SDS011;37448;51.588;7.248;2022-09-09T05:16:38;6.00;;;1.77;;
51358;SDS011;37448;51.588;7.248;2022-09-09T05:19:09;6.13;;;1.77;;
51358;SDS011;37448;51.588;7.248;2022-09-09T05:21:39;10.32;;;1.88;;
51358;SDS011;37448;51.588;7.248;2022-09-09T05:24:11;7.50;;;2.30;;
51358;SDS011;37448;51.588;7.248;2022-09-09T05:26:41;7.38;;;1.95;;
51358;SDS011;37448;51.588;7.248;2022-09-09T05:29:13;6.53;;;1.77;;
51358;SDS011;37448;51.588;7.248;2022-09-09T05:31:43;8.38;;;1.90;;
51358;SDS011;37448;51.588;7.248;2022-09-09T05:34:13;4.45;;;2.20;;
51358;SDS011;37448;51.588;7.248;2022-09-09T05:36:44;6.57;;;2.17;;
51358;SDS011;37448;51.588;7.248;2022-09-09T05:39:14;6.10;;;1.70;;
51358;SDS011;37448;51.588;7.248;2022-09-09T05:41:45;7.07;;;1.88;;
51358;SDS011;37448;51.588;7.248;2022-09-09T05:44:15;5.30;;;1.77;;
51358;SDS011;37448;51.588;7.248;2022-09-09T05:46:45;6.13;;;1.90;;
51358;SDS011;37448;51.588;7.248;2022-09-09T05:49:16;9.15;;;2.22;;
51358;SDS011;37448;51.588;7.248;2022-09-09T05:51:47;8.85;;;2.47;;
51358;SDS011;37448;51.588;7.248;2022-09-09T05:54:18;6.05;;;1.55;;
51358;SDS011;37448;51.588;7.248;2022-09-09T05:56:48;9.18;;;1.88;;
51358;SDS011;37448;51.588;7.248;2022-09-09T05:59:20;8.48;;;2.00;;
51358;SDS011;37448;51.588;7.248;2022-09-09T06:01:53;11.25;;;2.28;;
51358;SDS011;37448;51.588;7.248;2022-09-09T06:04:24;7.68;;;1.70;;
51358;SDS011;37448;51.588;7.248;2022-09-09T06:06:54;6.75;;;1.40;;
51358;SDS011;37448;51.588;7.248;2022-09-09T06:09:25;7.90;;;2.05;;
51358;SDS011;37448;51.588;7.248;2022-09-09T06:11:55;8.52;;;1.92;;
51358;SDS011;37448;51.588;7.248;2022-09-09T06:14:27;6.40;;;2.45;;
51358;SDS011;37448;51.588;7.248;2022-09-09T06:16:57;6.65;;;1.65;;
51358;SDS011;37448;51.588;7.248;2022-09-09T06:19:28;6.97;;;2.03;;
51358;SDS011;37448;51.588;7.248;2022-09-09T06:21:58;10.55;;;1.75;;
51358;SDS011;37448;51.588;7.248;2022-09-09T06:24:29;7.55;;;1.70;;
51358;SDS011;37448;51.588;7.248;2022-09-09T06:27:00;7.45;;;1.40;;
51358;SDS011;37448;51.588;7.248;2022-09-09T06:29:30;9.70;;;1.67;;
51358;SDS011;37448;51.588;7.248;2022-09-09T06:32:00;7.07;;;1.50;;
51358;SDS011;37448;51.588;7.248;2022-09-09T06:34:31;8.48;;;1.80;;
51358;SDS011;37448;51.588;7.248;2022-09-09T06:37:01;7.38;;;1.75;;
51358;SDS011;37448;51.588;7.248;2022-09-09T06:39:32;8.85;;;3.22;;
51358;SDS011;37448;51.588;7.248;2022-09-09T06:42:02;7.72;;;1.90;;
51358;SDS011;37448;51.588;7.248;2022-09-09T06:44:33;8.07;;;1.63;;
51358;SDS011;37448;51.588;7.248;2022-09-09T06:47:04;8.48;;;1.92;;
51358;SDS011;37448;51.588;7.248;2022-09-09T06:49:34;6.72;;;1.65;;
51358;SDS011;37448;51.588;7.248;2022-09-09T06:52:05;10.55;;;2.75;;
51358;SDS011;37448;51.588;7.248;2022-09-09T06:54:36;5.38;;;1.60;;
51358;SDS011;37448;51.588;7.248;2022-09-09T06:57:07;9.13;;;1.80;;
51358;SDS011;37448;51.588;7.248;2022-09-09T06:59:37;8.43;;;1.80;;
51358;SDS011;37448;51.588;7.248;2022-09-09T07:02:08;8.90;;;2.08;;
51358;SDS011;37448;51.588;7.248;2022-09-09T07:04:38;6.15;;;1.75;;
51358;SDS011;37448;51.588;7.248;2022-09-09T07:07:08;6.63;;;1.85;;
51358;SDS011;37448;51.588;7.248;2022-09-09T07:09:42;7.07;;;1.65;;
51358;SDS011;37448;51.588;7.248;2022-09-09T07:12:12;5.55;;;1.70;;
51358;SDS011;37448;51.588;7.248;2022-09-09T07:14:42;8.15;;;2.28;;
51358;SDS011;37448;51.588;7.248;2022-09-09T07:17:13;5.60;;;1.58;;
51358;SDS011;37448;51.588;7.248;2022-09-09T07:19:44;6.72;;;1.90;;
51358;SDS011;37448;51.588;7.248;2022-09-09T07:22:14;5.85;;;1.55;;
51358;SDS011;37448;51.588;7.248;2022-09-09T07:24:46;9.05;;;1.60;;
51358;SDS011;37448;51.588;7.248;2022-09-09T07:27:16;9.38;;;1.58;;
51358;SDS011;37448;51.588;7.248;2022-09-09T07:29:46;7.00;;;1.45;;
51358;SDS011;37448;51.588;7.248;2022-09-09T07:32:17;5.03;;;1.10;;
51358;SDS011;37448;51.588;7.248;2022-09-09T07:34:47;4.22;;;1.00;;
51358;SDS011;37448;51.588;7.248;2022-09-09T07:37:18;5.80;;;1.60;;
51358;SDS011;37448;51.588;7.248;2022-09-09T07:39:48;7.38;;;1.40;;
51358;SDS011;37448;51.588;7.248;2022-09-09T07:42:21;5.55;;;1.27;;
51358;SDS011;37448;51.588;7.248;2022-09-09T07:44:51;4.95;;;1.02;;
51358;SDS011;37448;51.588;7.248;2022-09-09T07:47:24;7.93;;;1.15;;
51358;SDS011;37448;51.588;7.248;2022-09-09T07:49:55;6.50;;;1.20;;
51358;SDS011;37448;51.588;7.248;2022-09-09T07:52:25;4.57;;;1.20;;
51358;SDS011;37448;51.588;7.248;2022-09-09T07:54:57;6.18;;;1.27;;
51358;SDS011;37448;51.588;7.248;2022-09-09T07:57:28;7.28;;;1.25;;
51358;SDS011;37448;51.588;7.248;2022-09-09T08:02:30;4.72;;;0.98;;
51358;SDS011;37448;51.588;7.248;2022-09-09T08:05:01;6.60;;;1.38;;
51358;SDS011;37448;51.588;7.248;2022-09-09T08:07:32;8.65;;;1.17;;
51358;SDS011;37448;51.588;7.248;2022-09-09T08:10:03;5.45;;;1.10;;
51358;SDS011;37448;51.588;7.248;2022-09-09T08:12:33;3.33;;;0.85;;
51358;SDS011;37448;51.588;7.248;2022-09-09T08:15:04;6.85;;;1.00;;
51358;SDS011;37448;51.588;7.248;2022-09-09T08:17:35;6.03;;;1.00;;
51358;SDS011;37448;51.588;7.248;2022-09-09T08:20:07;3.60;;;1.00;;
51358;SDS011;37448;51.588;7.248;2022-09-09T08:22:38;5.20;;;1.17;;
51358;SDS011;37448;51.588;7.248;2022-09-09T08:25:08;5.25;;;0.90;;
51358;SDS011;37448;51.588;7.248;2022-09-09T08:27:40;6.53;;;1.48;;
51358;SDS011;37448;51.588;7.248;2022-09-09T08:30:10;3.70;;;1.05;;
51358;SDS011;37448;51.588;7.248;2022-09-09T08:32:41;9.25;;;1.25;;
51358;SDS011;37448;51.588;7.248;2022-09-09T08:35:13;4.47;;;1.42;;
51358;SDS011;37448;51.588;7.248;2022-09-09T08:37:43;4.95;;;1.20;;
51358;SDS011;37448;51.588;7.248;2022-09-09T08:40:17;5.22;;;1.30;;
51358;SDS011;37448;51.588;7.248;2022-09-09T08:42:56;4.93;;;1.00;;
51358;SDS011;37448;51.588;7.248;2022-09-09T08:45:33;4.68;;;1.13;;
51358;SDS011;37448;51.588;7.248;2022-09-09T08:48:32;3.75;;;1.02;;
51358;SDS011;37448;51.588;7.248;2022-09-09T08:51:28;5.95;;;1.23;;
51358;SDS011;37448;51.588;7.248;2022-09-09T08:54:02;6.32;;;1.20;;
51358;SDS011;37448;51.588;7.248;2022-09-09T08:56:33;4.00;;;1.00;;
51358;SDS011;37448;51.588;7.248;2022-09-09T08:59:04;6.18;;;1.48;;
51358;SDS011;37448;51.588;7.248;2022-09-09T09:01:38;5.25;;;1.25;;
51358;SDS011;37448;51.588;7.248;2022-09-09T09:07:07;7.18;;;1.77;;
51358;SDS011;37448;51.588;7.248;2022-09-09T09:12:58;5.90;;;1.85;;
51358;SDS011;37448;51.588;7.248;2022-09-09T09:15:31;7.22;;;1.50;;
51358;SDS011;37448;51.588;7.248;2022-09-09T09:18:07;4.65;;;1.10;;
51358;SDS011;37448;51.588;7.248;2022-09-09T09:24:06;6.25;;;1.63;;
51358;SDS011;37448;51.588;7.248;2022-09-09T09:26:33;6.57;;;1.20;;
51358;SDS011;37448;51.588;7.248;2022-09-09T09:29:10;5.70;;;1.52;;
51358;SDS011;37448;51.588;7.248;2022-09-09T09:31:44;8.55;;;1.52;;
51358;SDS011;37448;51.588;7.248;2022-09-09T09:34:17;6.95;;;1.33;;
51358;SDS011;37448;51.588;7.248;2022-09-09T09:36:55;6.10;;;1.60;;
51358;SDS011;37448;51.588;7.248;2022-09-09T09:39:28;6.32;;;1.48;;
51358;SDS011;37448;51.588;7.248;2022-09-09T09:42:07;8.77;;;2.03;;
51358;SDS011;37448;51.588;7.248;2022-09-09T09:44:40;5.38;;;1.70;;
51358;SDS011;37448;51.588;7.248;2022-09-09T09:52:29;8.93;;;1.67;;
51358;SDS011;37448;51.588;7.248;2022-09-09T09:55:02;6.13;;;1.40;;
51358;SDS011;37448;51.588;7.248;2022-09-09T09:57:36;3.20;;;1.10;;
51358;SDS011;37448;51.588;7.248;2022-09-09T10:00:18;3.42;;;0.85;;
51358;SDS011;37448;51.588;7.248;2022-09-09T10:02:50;6.47;;;1.98;;
51358;SDS011;37448;51.588;7.248;2022-09-09T10:05:23;5.72;;;1.35;;
51358;SDS011;37448;51.588;7.248;2022-09-09T10:08:08;5.43;;;1.50;;
51358;SDS011;37448;51.588;7.248;2022-09-09T10:14:11;8.20;;;1.75;;
51358;SDS011;37448;51.588;7.248;2022-09-09T10:17:09;7.05;;;1.30;;
51358;SDS011;37448;51.588;7.248;2022-09-09T10:19:53;6.90;;;1.33;;
51358;SDS011;37448;51.588;7.248;2022-09-09T10:22:44;5.30;;;1.40;;
51358;SDS011;37448;51.588;7.248;2022-09-09T10:25:31;6.15;;;1.52;;
51358;SDS011;37448;51.588;7.248;2022-09-09T10:30:59;7.25;;;1.65;;
51358;SDS011;37448;51.588;7.248;2022-09-09T10:36:20;5.82;;;1.48;;
51358;SDS011;37448;51.588;7.248;2022-09-09T10:38:53;6.22;;;0.95;;
51358;SDS011;37448;51.588;7.248;2022-09-09T10:41:46;3.70;;;0.82;;
51358;SDS011;37448;51.588;7.248;2022-09-09T10:44:38;6.28;;;1.20;;
51358;SDS011;37448;51.588;7.248;2022-09-09T10:47:34;6.18;;;0.95;;
51358;SDS011;37448;51.588;7.248;2022-09-09T10:50:24;7.28;;;0.90;;
51358;SDS011;37448;51.588;7.248;2022-09-09T10:53:14;4.88;;;0.90;;
51358;SDS011;37448;51.588;7.248;2022-09-09T10:55:56;4.85;;;1.00;;
51358;SDS011;37448;51.588;7.248;2022-09-09T10:58:42;4.47;;;1.00;;
51358;SDS011;37448;51.588;7.248;2022-09-09T11:04:09;6.25;;;1.10;;
51358;SDS011;37448;51.588;7.248;2022-09-09T11:06:41;4.13;;;0.65;;
51358;SDS011;37448;51.588;7.248;2022-09-09T11:09:18;4.05;;;1.20;;
51358;SDS011;37448;51.588;7.248;2022-09-09T11:11:55;7.40;;;1.10;;
51358;SDS011;37448;51.588;7.248;2022-09-09T11:14:41;5.20;;;1.27;;
51358;SDS011;37448;51.588;7.248;2022-09-09T11:17:17;4.60;;;0.90;;
51358;SDS011;37448;51.588;7.248;2022-09-09T11:19:52;4.80;;;0.80;;
51358;SDS011;37448;51.588;7.248;2022-09-09T11:41:53;4.88;;;1.02;;
51358;SDS011;37448;51.588;7.248;2022-09-09T11:44:26;4.53;;;0.98;;
51358;SDS011;37448;51.588;7.248;2022-09-09T11:46:59;3.95;;;0.95;;
51358;SDS011;37448;51.588;7.248;2022-09-09T11:55:20;4.05;;;1.15;;
51358;SDS011;37448;51.588;7.248;2022-09-09T11:58:03;5.10;;;1.10;;
51358;SDS011;37448;51.588;7.248;2022-09-09T12:00:36;4.00;;;0.90;;
51358;SDS011;37448;51.588;7.248;2022-09-09T12:08:58;2.15;;;0.75;;
51358;SDS011;37448;51.588;7.248;2022-09-09T12:12:07;3.00;;;0.80;;
51358;SDS011;37448;51.588;7.248;2022-09-09T12:17:28;4.10;;;0.80;;
51358;SDS011;37448;51.588;7.248;2022-09-09T12:20:09;2.47;;;1.05;;
51358;SDS011;37448;51.588;7.248;2022-09-09T12:31:15;2.00;;;0.70;;
51358;SDS011;37448;51.588;7.248;2022-09-09T12:33:53;4.60;;;0.73;;
51358;SDS011;37448;51.588;7.248;2022-09-09T12:36:29;2.35;;;0.85;;
51358;SDS011;37448;51.588;7.248;2022-09-09T12:39:16;4.45;;;1.05;;
51358;SDS011;37448;51.588;7.248;2022-09-09T12:41:52;3.65;;;0.93;;
51358;SDS011;37448;51.588;7.248;2022-09-09T12:44:27;3.67;;;0.73;;
51358;SDS011;37448;51.588;7.248;2022-09-09T12:52:13;4.18;;;1.02;;
51358;SDS011;37448;51.588;7.248;2022-09-09T12:54:49;5.63;;;1.23;;
51358;SDS011;37448;51.588;7.248;2022-09-09T12:57:23;3.47;;;0.70;;
51358;SDS011;37448;51.588;7.248;2022-09-09T13:00:04;8.07;;;1.42;;
51358;SDS011;37448;51.588;7.248;2022-09-09T13:03:01;3.55;;;0.88;;
51358;SDS011;37448;51.588;7.248;2022-09-09T13:05:44;4.63;;;0.90;;
51358;SDS011;37448;51.588;7.248;2022-09-09T13:08:17;3.83;;;0.80;;
51358;SDS011;37448;51.588;7.248;2022-09-09T13:10:51;2.70;;;1.00;;
51358;SDS011;37448;51.588;7.248;2022-09-09T13:13:26;3.20;;;0.73;;
51358;SDS011;37448;51.588;7.248;2022-09-09T13:16:00;5.70;;;1.13;;
51358;SDS011;37448;51.588;7.248;2022-09-09T13:18:33;5.00;;;0.93;;
51358;SDS011;37448;51.588;7.248;2022-09-09T13:21:09;3.28;;;0.63;;
51358;SDS011;37448;51.588;7.248;2022-09-09T13:23:39;5.60;;;1.20;;
51358;SDS011;37448;51.588;7.248;2022-09-09T13:26:26;3.22;;;0.60;;
51358;SDS011;37448;51.588;7.248;2022-09-09T13:29:08;6.40;;;0.90;;
51358;SDS011;37448;51.588;7.248;2022-09-09T13:31:48;4.80;;;0.95;;
51358;SDS011;37448;51.588;7.248;2022-09-09T13:34:29;3.38;;;0.80;;
51358;SDS011;37448;51.588;7.248;2022-09-09T13:37:03;4.18;;;0.75;;
51358;SDS011;37448;51.588;7.248;2022-09-09T13:39:36;7.35;;;1.30;;
51358;SDS011;37448;51.588;7.248;2022-09-09T13:42:19;3.65;;;0.70;;
51358;SDS011;37448;51.588;7.248;2022-09-09T13:44:55;4.13;;;0.88;;
51358;SDS011;37448;51.588;7.248;2022-09-09T13:47:34;4.80;;;0.90;;
51358;SDS011;37448;51.588;7.248;2022-09-09T13:52:55;5.43;;;1.20;;
51358;SDS011;37448;51.588;7.248;2022-09-09T13:55:30;4.47;;;1.60;;
51358;SDS011;37448;51.588;7.248;2022-09-09T13:58:01;4.63;;;1.10;;
51358;SDS011;37448;51.588;7.248;2022-09-09T14:00:34;6.28;;;1.52;;
51358;SDS011;37448;51.588;7.248;2022-09-09T14:03:05;8.18;;;1.25;;
51358;SDS011;37448;51.588;7.248;2022-09-09T14:05:37;4.23;;;1.73;;
51358;SDS011;37448;51.588;7.248;2022-09-09T14:08:09;11.57;;;1.60;;
51358;SDS011;37448;51.588;7.248;2022-09-09T14:10:46;8.18;;;1.92;;
51358;SDS011;37448;51.588;7.248;2022-09-09T14:13:16;11.20;;;2.67;;
51358;SDS011;37448;51.588;7.248;2022-09-09T14:15:47;9.82;;;2.60;;
51358;SDS011;37448;51.588;7.248;2022-09-09T14:18:18;6.68;;;1.48;;
51358;SDS011;37448;51.588;7.248;2022-09-09T14:20:49;6.63;;;2.13;;
51358;SDS011;37448;51.588;7.248;2022-09-09T14:23:20;7.97;;;2.05;;
51358;SDS011;37448;51.588;7.248;2022-09-09T14:25:51;5.63;;;1.55;;
51358;SDS011;37448;51.588;7.248;2022-09-09T14:28:22;4.13;;;1.40;;
51358;SDS011;37448;51.588;7.248;2022-09-09T14:30:52;7.50;;;1.20;;
51358;SDS011;37448;51.588;7.248;2022-09-09T14:33:23;2.40;;;0.90;;
51358;SDS011;37448;51.588;7.248;2022-09-09T14:35:58;3.58;;;1.27;;
51358;SDS011;37448;51.588;7.248;2022-09-09T14:38:33;4.15;;;1.05;;
51358;SDS011;37448;51.588;7.248;2022-09-09T14:41:10;3.72;;;1.10;;
51358;SDS011;37448;51.588;7.248;2022-09-09T14:43:41;2.33;;;0.90;;
51358;SDS011;37448;51.588;7.248;2022-09-09T14:46:12;5.28;;;1.20;;
51358;SDS011;37448;51.588;7.248;2022-09-09T14:48:45;4.63;;;1.08;;
51358;SDS011;37448;51.588;7.248;2022-09-09T14:51:19;3.35;;;0.93;;
51358;SDS011;37448;51.588;7.248;2022-09-09T14:53:52;4.40;;;1.00;;
51358;SDS011;37448;51.588;7.248;2022-09-09T14:56:27;5.65;;;1.17;;
51358;SDS011;37448;51.588;7.248;2022-09-09T14:58:59;7.40;;;1.55;;
51358;SDS011;37448;51.588;7.248;2022-09-09T15:01:33;4.93;;;1.50;;
51358;SDS011;37448;51.588;7.248;2022-09-09T15:04:04;6.22;;;1.50;;
51358;SDS011;37448;51.588;7.248;2022-09-09T15:06:35;7.75;;;2.03;;
51358;SDS011;37448;51.588;7.248;2022-09-09T15:09:09;5.63;;;1.77;;
51358;SDS011;37448;51.588;7.248;2022-09-09T15:11:39;6.22;;;1.83;;
51358;SDS011;37448;51.588;7.248;2022-09-09T15:14:10;5.68;;;1.73;;
51358;SDS011;37448;51.588;7.248;2022-09-09T15:16:41;4.93;;;1.50;;
51358;SDS011;37448;51.588;7.248;2022-09-09T15:19:12;7.80;;;1.90;;
51358;SDS011;37448;51.588;7.248;2022-09-09T15:21:42;7.47;;;1.40;;
51358;SDS011;37448;51.588;7.248;2022-09-09T15:24:13;7.15;;;1.77;;
51358;SDS011;37448;51.588;7.248;2022-09-09T15:26:43;5.25;;;1.77;;
51358;SDS011;37448;51.588;7.248;2022-09-09T15:29:13;7.95;;;1.77;;
51358;SDS011;37448;51.588;7.248;2022-09-09T15:31:44;5.25;;;2.05;;
51358;SDS011;37448;51.588;7.248;2022-09-09T15:34:15;6.53;;;2.00;;
51358;SDS011;37448;51.588;7.248;2022-09-09T15:36:46;7.85;;;2.58;;
51358;SDS011;37448;51.588;7.248;2022-09-09T15:39:18;5.70;;;1.88;;
51358;SDS011;37448;51.588;7.248;2022-09-09T15:41:48;2.00;;;0.50;;
51358;SDS011;37448;51.588;7.248;2022-09-09T15:44:18;1.88;;;0.60;;
51358;SDS011;37448;51.588;7.248;2022-09-09T15:46:50;4.30;;;0.70;;
51358;SDS011;37448;51.588;7.248;2022-09-09T15:49:24;4.25;;;0.57;;
51358;SDS011;37448;51.588;7.248;2022-09-09T15:51:56;2.65;;;0.50;;
51358;SDS011;37448;51.588;7.248;2022-09-09T15:54:28;1.85;;;0.50;;
51358;SDS011;37448;51.588;7.248;2022-09-09T15:57:03;4.10;;;0.70;;
51358;SDS011;37448;51.588;7.248;2022-09-09T15:59:34;2.47;;;0.65;;
51358;SDS011;37448;51.588;7.248;2022-09-09T16:02:04;2.58;;;0.90;;
51358;SDS011;37448;51.588;7.248;2022-09-09T16:04:36;2.40;;;0.90;;
51358;SDS011;37448;51.588;7.248;2022-09-09T16:07:07;3.75;;;1.30;;
51358;SDS011;37448;51.588;7.248;2022-09-09T16:09:37;4.13;;;0.98;;
51358;SDS011;37448;51.588;7.248;2022-09-09T16:12:08;3.00;;;0.93;;
51358;SDS011;37448;51.588;7.248;2022-09-09T16:14:41;2.72;;;0.70;;
51358;SDS011;37448;51.588;7.248;2022-09-09T16:17:12;2.70;;;0.90;;
51358;SDS011;37448;51.588;7.248;2022-09-09T16:19:42;2.20;;;0.70;;
51358;SDS011;37448;51.588;7.248;2022-09-09T16:22:12;2.38;;;0.60;;
51358;SDS011;37448;51.588;7.248;2022-09-09T16:24:45;2.08;;;0.88;;
51358;SDS011;37448;51.588;7.248;2022-09-09T16:27:15;2.97;;;0.68;;
51358;SDS011;37448;51.588;7.248;2022-09-09T16:29:45;1.83;;;0.65;;
51358;SDS011;37448;51.588;7.248;2022-09-09T16:32:16;4.32;;;0.77;;
51358;SDS011;37448;51.588;7.248;2022-09-09T16:34:46;1.35;;;0.80;;
51358;SDS011;37448;51.588;7.248;2022-09-09T16:37:17;3.60;;;1.00;;
51358;SDS011;37448;51.588;7.248;2022-09-09T16:39:47;3.17;;;0.90;;
51358;SDS011;37448;51.588;7.248;2022-09-09T16:42:18;2.78;;;1.00;;
51358;SDS011;37448;51.588;7.248;2022-09-09T16:44:48;2.47;;;0.70;;
51358;SDS011;37448;51.588;7.248;2022-09-09T16:47:20;2.03;;;0.70;;
51358;SDS011;37448;51.588;7.248;2022-09-09T16:49:50;2.90;;;0.90;;
51358;SDS011;37448;51.588;7.248;2022-09-09T16:52:20;1.98;;;0.50;;
51358;SDS011;37448;51.588;7.248;2022-09-09T16:54:51;1.25;;;0.60;;
51358;SDS011;37448;51.588;7.248;2022-09-09T16:57:21;2.22;;;0.93;;
51358;SDS011;37448;51.588;7.248;2022-09-09T16:59:51;2.85;;;0.60;;
51358;SDS011;37448;51.588;7.248;2022-09-09T17:02:24;1.92;;;0.70;;
51358;SDS011;37448;51.588;7.248;2022-09-09T17:04:54;2.22;;;0.82;;
51358;SDS011;37448;51.588;7.248;2022-09-09T17:07:25;3.33;;;0.80;;
51358;SDS011;37448;51.588;7.248;2022-09-09T17:09:55;2.17;;;0.60;;
51358;SDS011;37448;51.588;7.248;2022-09-09T17:12:25;1.83;;;0.85;;
51358;SDS011;37448;51.588;7.248;2022-09-09T17:14:56;1.95;;;0.70;;
51358;SDS011;37448;51.588;7.248;2022-09-09T17:17:26;2.88;;;0.80;;
51358;SDS011;37448;51.588;7.248;2022-09-09T17:19:57;3.85;;;0.95;;
51358;SDS011;37448;51.588;7.248;2022-09-09T17:22:27;3.92;;;1.30;;
51358;SDS011;37448;51.588;7.248;2022-09-09T17:24:58;3.85;;;1.42;;